sensor_id;sensor_type;location;lat;lon;timestamp;temperature;humidity
21115;DHT22;10715;48.546;9.896;2022-08-19T00:00:00;16.30;99.90
21115;DHT22;10715;48.546;9.896;2022-08-19T00:02:25;16.30;99.90
21115;DHT22;10715;48.546;9.896;2022-08-19T00:04:51;16.30;99.90
21115;DHT22;10715;48.546;9.896;2022-08-19T00:07:19;16.30;99.90
21115;DHT22;10715;48.546;9.896;2022-08-19T00:09:45;16.30;99.90
21115;DHT22;10715;48.546;9.896;2022-08-19T00:12:12;16.30;99.90
21115;DHT22;10715;48.546;9.896;2022-08-19T00:14:39;16.30;99.90
21115;DHT22;10715;48.546;9.896;2022-08-19T00:17:07;16.30;99.90
21115;DHT22;10715;48.546;9.896;2022-08-19T00:19:33;16.30;99.90
21115;DHT22;10715;48.546;9.896;2022-08-19T00:21:59;16.30;99.90
21115;DHT22;10715;48.546;9.896;2022-08-19T00:24:25;16.30;99.90
21115;DHT22;10715;48.546;9.896;2022-08-19T00:26:51;16.20;99.90
21115;DHT22;10715;48.546;9.896;2022-08-19T00:29:19;16.20;99.90
21115;DHT22;10715;48.546;9.896;2022-08-19T00:31:46;16.20;99.90
21115;DHT22;10715;48.546;9.896;2022-08-19T00:34:13;16.20;99.90
21115;DHT22;10715;48.546;9.896;2022-08-19T00:36:41;16.20;99.90
21115;DHT22;10715;48.546;9.896;2022-08-19T00:39:07;16.20;99.90
21115;DHT22;10715;48.546;9.896;2022-08-19T00:41:36;16.10;99.90
21115;DHT22;10715;48.546;9.896;2022-08-19T00:46:36;16.10;99.90
21115;DHT22;10715;48.546;9.896;2022-08-19T00:49:09;16.20;99.90
21115;DHT22;10715;48.546;9.896;2022-08-19T00:51:35;16.10;99.90
21115;DHT22;10715;48.546;9.896;2022-08-19T00:54:02;16.20;99.90
21115;DHT22;10715;48.546;9.896;2022-08-19T00:56:28;16.10;99.90
21115;DHT22;10715;48.546;9.896;2022-08-19T00:58:58;16.10;99.90
21115;DHT22;10715;48.546;9.896;2022-08-19T01:01:24;16.10;99.90
21115;DHT22;10715;48.546;9.896;2022-08-19T01:03:51;16.10;99.90
21115;DHT22;10715;48.546;9.896;2022-08-19T01:06:17;16.10;99.90
21115;DHT22;10715;48.546;9.896;2022-08-19T01:08:42;16.10;99.90
21115;DHT22;10715;48.546;9.896;2022-08-19T01:11:08;16.10;99.90
21115;DHT22;10715;48.546;9.896;2022-08-19T01:13:34;16.00;99.90
21115;DHT22;10715;48.546;9.896;2022-08-19T01:16:05;16.00;99.90
21115;DHT22;10715;48.546;9.896;2022-08-19T01:18:32;16.00;99.90
21115;DHT22;10715;48.546;9.896;2022-08-19T01:21:05;15.90;99.90
21115;DHT22;10715;48.546;9.896;2022-08-19T01:23:33;15.90;99.90
21115;DHT22;10715;48.546;9.896;2022-08-19T01:26:21;15.90;99.90
21115;DHT22;10715;48.546;9.896;2022-08-19T01:28:51;15.90;99.90
21115;DHT22;10715;48.546;9.896;2022-08-19T01:31:22;15.90;99.90
21115;DHT22;10715;48.546;9.896;2022-08-19T01:33:49;15.90;99.90
21115;DHT22;10715;48.546;9.896;2022-08-19T01:36:43;15.90;99.90
21115;DHT22;10715;48.546;9.896;2022-08-19T01:39:10;15.90;99.90
21115;DHT22;10715;48.546;9.896;2022-08-19T01:41:37;15.90;99.90
21115;DHT22;10715;48.546;9.896;2022-08-19T01:44:04;16.00;99.90
21115;DHT22;10715;48.546;9.896;2022-08-19T01:46:31;15.90;99.90
21115;DHT22;10715;48.546;9.896;2022-08-19T01:48:58;15.90;99.90
21115;DHT22;10715;48.546;9.896;2022-08-19T01:51:24;15.90;99.90
21115;DHT22;10715;48.546;9.896;2022-08-19T01:53:51;16.00;99.90
21115;DHT22;10715;48.546;9.896;2022-08-19T01:56:19;15.90;99.90
21115;DHT22;10715;48.546;9.896;2022-08-19T01:58:50;15.90;99.90
21115;DHT22;10715;48.546;9.896;2022-08-19T02:01:18;15.90;99.90
21115;DHT22;10715;48.546;9.896;2022-08-19T02:03:44;15.90;99.90
21115;DHT22;10715;48.546;9.896;2022-08-19T02:06:11;15.90;99.90
21115;DHT22;10715;48.546;9.896;2022-08-19T02:08:38;15.90;99.90
21115;DHT22;10715;48.546;9.896;2022-08-19T02:11:05;15.90;99.90
21115;DHT22;10715;48.546;9.896;2022-08-19T02:13:31;15.90;99.90
21115;DHT22;10715;48.546;9.896;2022-08-19T02:15:57;15.90;99.90
21115;DHT22;10715;48.546;9.896;2022-08-19T02:18:23;15.90;99.90
21115;DHT22;10715;48.546;9.896;2022-08-19T02:20:49;15.90;99.90
21115;DHT22;10715;48.546;9.896;2022-08-19T02:23:16;15.90;99.90
21115;DHT22;10715;48.546;9.896;2022-08-19T02:25:44;15.90;99.90
21115;DHT22;10715;48.546;9.896;2022-08-19T02:28:10;15.90;99.90
21115;DHT22;10715;48.546;9.896;2022-08-19T02:30:37;15.80;99.90
21115;DHT22;10715;48.546;9.896;2022-08-19T02:33:04;15.80;99.90
21115;DHT22;10715;48.546;9.896;2022-08-19T02:35:31;15.80;99.90
21115;DHT22;10715;48.546;9.896;2022-08-19T02:37:56;15.80;99.90
21115;DHT22;10715;48.546;9.896;2022-08-19T02:40:47;15.80;99.90
21115;DHT22;10715;48.546;9.896;2022-08-19T02:43:15;15.70;99.90
21115;DHT22;10715;48.546;9.896;2022-08-19T02:45:41;15.70;99.90
21115;DHT22;10715;48.546;9.896;2022-08-19T02:48:07;15.70;99.90
21115;DHT22;10715;48.546;9.896;2022-08-19T02:50:40;15.70;99.90
21115;DHT22;10715;48.546;9.896;2022-08-19T02:53:06;15.70;99.90
21115;DHT22;10715;48.546;9.896;2022-08-19T02:55:34;15.70;99.90
21115;DHT22;10715;48.546;9.896;2022-08-19T02:58:00;15.70;99.90
21115;DHT22;10715;48.546;9.896;2022-08-19T03:00:26;15.70;99.90
21115;DHT22;10715;48.546;9.896;2022-08-19T03:02:53;15.70;99.90
21115;DHT22;10715;48.546;9.896;2022-08-19T03:05:19;15.70;99.90
21115;DHT22;10715;48.546;9.896;2022-08-19T03:07:44;15.70;99.90
21115;DHT22;10715;48.546;9.896;2022-08-19T03:10:12;15.70;99.90
21115;DHT22;10715;48.546;9.896;2022-08-19T03:12:38;15.60;99.90
21115;DHT22;10715;48.546;9.896;2022-08-19T03:15:06;15.70;99.90
21115;DHT22;10715;48.546;9.896;2022-08-19T03:17:34;15.70;99.90
21115;DHT22;10715;48.546;9.896;2022-08-19T03:20:00;15.70;99.90
21115;DHT22;10715;48.546;9.896;2022-08-19T03:22:26;15.60;99.90
21115;DHT22;10715;48.546;9.896;2022-08-19T03:24:51;15.60;99.90
21115;DHT22;10715;48.546;9.896;2022-08-19T03:27:17;15.60;99.90
21115;DHT22;10715;48.546;9.896;2022-08-19T03:29:43;15.60;99.90
21115;DHT22;10715;48.546;9.896;2022-08-19T03:32:09;15.60;99.90
21115;DHT22;10715;48.546;9.896;2022-08-19T03:34:37;15.60;99.90
21115;DHT22;10715;48.546;9.896;2022-08-19T03:37:09;15.60;99.90
21115;DHT22;10715;48.546;9.896;2022-08-19T03:39:37;15.60;99.90
21115;DHT22;10715;48.546;9.896;2022-08-19T03:42:04;15.60;99.90
21115;DHT22;10715;48.546;9.896;2022-08-19T03:44:31;15.60;99.90
21115;DHT22;10715;48.546;9.896;2022-08-19T03:46:59;15.60;99.90
21115;DHT22;10715;48.546;9.896;2022-08-19T03:49:27;15.50;99.90
21115;DHT22;10715;48.546;9.896;2022-08-19T03:51:54;15.50;99.90
21115;DHT22;10715;48.546;9.896;2022-08-19T03:54:22;15.60;99.90
21115;DHT22;10715;48.546;9.896;2022-08-19T03:56:50;15.50;99.90
21115;DHT22;10715;48.546;9.896;2022-08-19T03:59:21;15.50;99.90
21115;DHT22;10715;48.546;9.896;2022-08-19T04:01:47;15.50;99.90
21115;DHT22;10715;48.546;9.896;2022-08-19T04:04:13;15.50;99.90
21115;DHT22;10715;48.546;9.896;2022-08-19T04:06:39;15.50;99.90
21115;DHT22;10715;48.546;9.896;2022-08-19T04:09:08;15.50;99.90
21115;DHT22;10715;48.546;9.896;2022-08-19T04:11:47;15.50;99.90
21115;DHT22;10715;48.546;9.896;2022-08-19T04:14:15;15.50;99.90
21115;DHT22;10715;48.546;9.896;2022-08-19T04:16:41;15.60;99.90
21115;DHT22;10715;48.546;9.896;2022-08-19T04:19:09;15.50;99.90
21115;DHT22;10715;48.546;9.896;2022-08-19T04:21:35;15.60;99.90
21115;DHT22;10715;48.546;9.896;2022-08-19T04:24:02;15.60;99.90
21115;DHT22;10715;48.546;9.896;2022-08-19T04:26:31;15.60;99.90
21115;DHT22;10715;48.546;9.896;2022-08-19T04:28:58;15.50;99.90
21115;DHT22;10715;48.546;9.896;2022-08-19T04:31:28;15.50;99.90
21115;DHT22;10715;48.546;9.896;2022-08-19T04:33:56;15.60;99.90
21115;DHT22;10715;48.546;9.896;2022-08-19T04:36:28;15.60;99.90
21115;DHT22;10715;48.546;9.896;2022-08-19T04:38:57;15.60;99.90
21115;DHT22;10715;48.546;9.896;2022-08-19T04:41:24;15.70;99.90
21115;DHT22;10715;48.546;9.896;2022-08-19T04:44:08;15.70;99.90
21115;DHT22;10715;48.546;9.896;2022-08-19T04:46:34;15.70;99.90
21115;DHT22;10715;48.546;9.896;2022-08-19T04:49:01;15.70;99.90
21115;DHT22;10715;48.546;9.896;2022-08-19T04:51:27;15.70;99.90
21115;DHT22;10715;48.546;9.896;2022-08-19T04:53:53;15.70;99.90
21115;DHT22;10715;48.546;9.896;2022-08-19T04:56:20;15.80;99.90
21115;DHT22;10715;48.546;9.896;2022-08-19T04:58:52;15.80;99.90
21115;DHT22;10715;48.546;9.896;2022-08-19T05:01:21;15.80;99.90
21115;DHT22;10715;48.546;9.896;2022-08-19T05:03:47;15.90;99.90
21115;DHT22;10715;48.546;9.896;2022-08-19T05:06:14;15.90;99.90
21115;DHT22;10715;48.546;9.896;2022-08-19T05:08:41;15.90;99.90
21115;DHT22;10715;48.546;9.896;2022-08-19T05:11:15;15.90;99.90
21115;DHT22;10715;48.546;9.896;2022-08-19T05:13:44;16.00;99.90
21115;DHT22;10715;48.546;9.896;2022-08-19T05:16:12;16.00;99.90
21115;DHT22;10715;48.546;9.896;2022-08-19T05:18:38;16.10;99.90
21115;DHT22;10715;48.546;9.896;2022-08-19T05:21:23;16.10;99.90
21115;DHT22;10715;48.546;9.896;2022-08-19T05:24:08;16.10;99.90
21115;DHT22;10715;48.546;9.896;2022-08-19T05:26:38;16.10;99.90
21115;DHT22;10715;48.546;9.896;2022-08-19T05:29:04;16.10;99.90
21115;DHT22;10715;48.546;9.896;2022-08-19T05:31:31;16.20;99.90
21115;DHT22;10715;48.546;9.896;2022-08-19T05:33:56;16.20;99.90
21115;DHT22;10715;48.546;9.896;2022-08-19T05:36:25;16.20;99.90
21115;DHT22;10715;48.546;9.896;2022-08-19T05:38:51;16.20;99.90
21115;DHT22;10715;48.546;9.896;2022-08-19T05:41:19;16.20;99.90
21115;DHT22;10715;48.546;9.896;2022-08-19T05:43:45;16.20;99.90
21115;DHT22;10715;48.546;9.896;2022-08-19T05:46:19;16.20;99.90
21115;DHT22;10715;48.546;9.896;2022-08-19T05:48:45;16.20;99.90
21115;DHT22;10715;48.546;9.896;2022-08-19T05:51:12;16.20;99.90
21115;DHT22;10715;48.546;9.896;2022-08-19T05:53:37;16.20;99.90
21115;DHT22;10715;48.546;9.896;2022-08-19T05:56:12;16.10;99.90
21115;DHT22;10715;48.546;9.896;2022-08-19T05:58:38;16.10;99.90
21115;DHT22;10715;48.546;9.896;2022-08-19T06:01:10;16.10;99.90
21115;DHT22;10715;48.546;9.896;2022-08-19T06:03:36;16.00;99.90
21115;DHT22;10715;48.546;9.896;2022-08-19T06:06:04;15.90;99.90
21115;DHT22;10715;48.546;9.896;2022-08-19T06:08:30;15.90;99.90
21115;DHT22;10715;48.546;9.896;2022-08-19T06:10:56;15.90;99.90
21115;DHT22;10715;48.546;9.896;2022-08-19T06:13:22;15.80;99.90
21115;DHT22;10715;48.546;9.896;2022-08-19T06:15:49;15.80;99.90
21115;DHT22;10715;48.546;9.896;2022-08-19T06:18:15;15.80;99.90
21115;DHT22;10715;48.546;9.896;2022-08-19T06:20:42;15.80;99.90
21115;DHT22;10715;48.546;9.896;2022-08-19T06:23:09;15.80;99.90
21115;DHT22;10715;48.546;9.896;2022-08-19T06:25:35;15.80;99.90
21115;DHT22;10715;48.546;9.896;2022-08-19T06:28:02;15.70;99.90
21115;DHT22;10715;48.546;9.896;2022-08-19T06:30:28;15.70;99.90
21115;DHT22;10715;48.546;9.896;2022-08-19T06:32:53;15.70;99.90
21115;DHT22;10715;48.546;9.896;2022-08-19T06:35:19;15.70;99.90
21115;DHT22;10715;48.546;9.896;2022-08-19T06:37:45;15.70;99.90
21115;DHT22;10715;48.546;9.896;2022-08-19T06:40:12;15.70;99.90
21115;DHT22;10715;48.546;9.896;2022-08-19T06:42:38;15.70;99.90
21115;DHT22;10715;48.546;9.896;2022-08-19T06:45:05;15.70;99.90
21115;DHT22;10715;48.546;9.896;2022-08-19T06:47:31;15.70;99.90
21115;DHT22;10715;48.546;9.896;2022-08-19T06:50:00;15.70;99.90
21115;DHT22;10715;48.546;9.896;2022-08-19T06:52:30;15.70;99.90
21115;DHT22;10715;48.546;9.896;2022-08-19T06:54:56;15.70;99.90
21115;DHT22;10715;48.546;9.896;2022-08-19T06:57:22;15.70;99.90
21115;DHT22;10715;48.546;9.896;2022-08-19T06:59:48;15.70;99.90
21115;DHT22;10715;48.546;9.896;2022-08-19T07:02:14;15.70;99.90
21115;DHT22;10715;48.546;9.896;2022-08-19T07:04:40;15.70;99.90
21115;DHT22;10715;48.546;9.896;2022-08-19T07:07:08;15.70;99.90
21115;DHT22;10715;48.546;9.896;2022-08-19T07:09:37;15.70;99.90
21115;DHT22;10715;48.546;9.896;2022-08-19T07:12:06;15.70;99.90
21115;DHT22;10715;48.546;9.896;2022-08-19T07:14:33;15.70;99.90
21115;DHT22;10715;48.546;9.896;2022-08-19T07:17:10;15.70;99.90
21115;DHT22;10715;48.546;9.896;2022-08-19T07:19:37;15.70;99.90
21115;DHT22;10715;48.546;9.896;2022-08-19T07:22:05;15.70;99.90
21115;DHT22;10715;48.546;9.896;2022-08-19T07:24:32;15.60;99.90
21115;DHT22;10715;48.546;9.896;2022-08-19T07:27:01;15.60;99.90
21115;DHT22;10715;48.546;9.896;2022-08-19T07:29:30;15.60;99.90
21115;DHT22;10715;48.546;9.896;2022-08-19T07:31:59;15.70;99.90
21115;DHT22;10715;48.546;9.896;2022-08-19T07:34:26;15.70;99.90
21115;DHT22;10715;48.546;9.896;2022-08-19T07:36:53;15.70;99.90
21115;DHT22;10715;48.546;9.896;2022-08-19T07:39:22;15.70;99.90
21115;DHT22;10715;48.546;9.896;2022-08-19T07:41:49;15.70;99.90
21115;DHT22;10715;48.546;9.896;2022-08-19T07:44:16;15.70;99.90
21115;DHT22;10715;48.546;9.896;2022-08-19T07:46:46;15.70;99.90
21115;DHT22;10715;48.546;9.896;2022-08-19T07:49:13;15.70;99.90
21115;DHT22;10715;48.546;9.896;2022-08-19T07:51:55;15.80;99.90
21115;DHT22;10715;48.546;9.896;2022-08-19T07:54:23;15.80;99.90
21115;DHT22;10715;48.546;9.896;2022-08-19T07:56:49;15.80;99.90
21115;DHT22;10715;48.546;9.896;2022-08-19T07:59:16;15.80;99.90
21115;DHT22;10715;48.546;9.896;2022-08-19T08:01:43;15.90;99.90
21115;DHT22;10715;48.546;9.896;2022-08-19T08:04:10;15.90;99.90
21115;DHT22;10715;48.546;9.896;2022-08-19T08:06:54;15.90;99.90
21115;DHT22;10715;48.546;9.896;2022-08-19T08:09:41;15.90;99.90
21115;DHT22;10715;48.546;9.896;2022-08-19T08:12:16;15.90;99.90
21115;DHT22;10715;48.546;9.896;2022-08-19T08:14:48;15.90;99.90
21115;DHT22;10715;48.546;9.896;2022-08-19T08:17:16;15.90;99.90
21115;DHT22;10715;48.546;9.896;2022-08-19T08:19:43;15.90;99.90
21115;DHT22;10715;48.546;9.896;2022-08-19T08:22:12;16.00;99.90
21115;DHT22;10715;48.546;9.896;2022-08-19T08:25:12;16.00;99.90
21115;DHT22;10715;48.546;9.896;2022-08-19T08:27:44;16.00;99.90
21115;DHT22;10715;48.546;9.896;2022-08-19T08:30:17;16.00;99.90
21115;DHT22;10715;48.546;9.896;2022-08-19T08:32:43;16.00;99.90
21115;DHT22;10715;48.546;9.896;2022-08-19T08:35:11;16.10;99.90
21115;DHT22;10715;48.546;9.896;2022-08-19T08:37:38;16.10;99.90
21115;DHT22;10715;48.546;9.896;2022-08-19T08:40:16;16.20;99.90
21115;DHT22;10715;48.546;9.896;2022-08-19T08:43:24;16.20;99.90
21115;DHT22;10715;48.546;9.896;2022-08-19T08:51:03;16.30;99.90
21115;DHT22;10715;48.546;9.896;2022-08-19T08:53:30;16.30;99.90
21115;DHT22;10715;48.546;9.896;2022-08-19T08:55:58;16.30;99.90
21115;DHT22;10715;48.546;9.896;2022-08-19T08:58:31;16.40;99.90
21115;DHT22;10715;48.546;9.896;2022-08-19T09:00:58;16.40;99.90
21115;DHT22;10715;48.546;9.896;2022-08-19T09:03:26;16.40;99.90
21115;DHT22;10715;48.546;9.896;2022-08-19T09:06:18;16.30;99.90
21115;DHT22;10715;48.546;9.896;2022-08-19T09:08:58;16.20;99.90
21115;DHT22;10715;48.546;9.896;2022-08-19T09:14:34;16.20;99.90
21115;DHT22;10715;48.546;9.896;2022-08-19T09:17:03;16.20;99.90
21115;DHT22;10715;48.546;9.896;2022-08-19T09:19:33;16.20;99.90
21115;DHT22;10715;48.546;9.896;2022-08-19T09:21:58;16.10;99.90
21115;DHT22;10715;48.546;9.896;2022-08-19T09:24:26;16.20;99.90
21115;DHT22;10715;48.546;9.896;2022-08-19T09:26:51;16.20;99.90
21115;DHT22;10715;48.546;9.896;2022-08-19T09:29:17;16.20;99.90
21115;DHT22;10715;48.546;9.896;2022-08-19T09:31:43;16.20;99.90
21115;DHT22;10715;48.546;9.896;2022-08-19T09:34:09;16.20;99.90
21115;DHT22;10715;48.546;9.896;2022-08-19T09:36:35;16.20;99.90
21115;DHT22;10715;48.546;9.896;2022-08-19T09:39:05;16.20;99.90
21115;DHT22;10715;48.546;9.896;2022-08-19T09:41:31;16.20;99.90
21115;DHT22;10715;48.546;9.896;2022-08-19T09:43:59;16.30;99.90
21115;DHT22;10715;48.546;9.896;2022-08-19T09:46:28;16.30;99.90
21115;DHT22;10715;48.546;9.896;2022-08-19T09:48:54;16.30;99.90
21115;DHT22;10715;48.546;9.896;2022-08-19T09:51:24;16.40;99.90
21115;DHT22;10715;48.546;9.896;2022-08-19T09:53:51;16.40;99.90
21115;DHT22;10715;48.546;9.896;2022-08-19T09:56:21;16.50;99.90
21115;DHT22;10715;48.546;9.896;2022-08-19T09:58:47;16.60;99.90
21115;DHT22;10715;48.546;9.896;2022-08-19T10:01:24;16.60;99.90
21115;DHT22;10715;48.546;9.896;2022-08-19T10:03:53;16.70;99.90
21115;DHT22;10715;48.546;9.896;2022-08-19T10:06:21;16.80;99.90
21115;DHT22;10715;48.546;9.896;2022-08-19T10:08:48;16.80;99.90
21115;DHT22;10715;48.546;9.896;2022-08-19T10:11:15;16.80;99.90
21115;DHT22;10715;48.546;9.896;2022-08-19T10:13:43;16.80;99.90
21115;DHT22;10715;48.546;9.896;2022-08-19T10:16:16;16.80;99.90
21115;DHT22;10715;48.546;9.896;2022-08-19T10:18:45;16.80;99.90
21115;DHT22;10715;48.546;9.896;2022-08-19T10:21:21;16.90;99.90
21115;DHT22;10715;48.546;9.896;2022-08-19T10:23:49;16.80;99.90
21115;DHT22;10715;48.546;9.896;2022-08-19T10:26:19;16.80;99.90
21115;DHT22;10715;48.546;9.896;2022-08-19T10:28:45;16.80;99.90
21115;DHT22;10715;48.546;9.896;2022-08-19T10:31:16;16.70;99.90
21115;DHT22;10715;48.546;9.896;2022-08-19T10:33:43;16.70;99.90
21115;DHT22;10715;48.546;9.896;2022-08-19T10:36:11;16.70;99.90
21115;DHT22;10715;48.546;9.896;2022-08-19T10:38:40;16.70;99.90
21115;DHT22;10715;48.546;9.896;2022-08-19T10:41:18;16.60;99.90
21115;DHT22;10715;48.546;9.896;2022-08-19T10:43:45;16.50;99.90
21115;DHT22;10715;48.546;9.896;2022-08-19T10:46:13;16.50;99.90
21115;DHT22;10715;48.546;9.896;2022-08-19T10:48:40;16.40;99.90
21115;DHT22;10715;48.546;9.896;2022-08-19T10:51:06;16.30;99.90
21115;DHT22;10715;48.546;9.896;2022-08-19T10:53:50;16.30;99.90
21115;DHT22;10715;48.546;9.896;2022-08-19T10:56:17;16.20;99.90
21115;DHT22;10715;48.546;9.896;2022-08-19T10:59:02;16.20;99.90
21115;DHT22;10715;48.546;9.896;2022-08-19T11:01:29;16.20;99.90
21115;DHT22;10715;48.546;9.896;2022-08-19T11:03:56;16.20;99.90
21115;DHT22;10715;48.546;9.896;2022-08-19T11:06:25;16.20;99.90
21115;DHT22;10715;48.546;9.896;2022-08-19T11:08:52;16.20;99.90
21115;DHT22;10715;48.546;9.896;2022-08-19T11:11:18;16.20;99.90
21115;DHT22;10715;48.546;9.896;2022-08-19T11:13:44;16.10;99.90
21115;DHT22;10715;48.546;9.896;2022-08-19T11:16:22;16.10;99.90
21115;DHT22;10715;48.546;9.896;2022-08-19T11:18:54;16.10;99.90
21115;DHT22;10715;48.546;9.896;2022-08-19T11:21:29;16.10;99.90
21115;DHT22;10715;48.546;9.896;2022-08-19T11:23:59;16.10;99.90
21115;DHT22;10715;48.546;9.896;2022-08-19T11:26:27;16.10;99.90
21115;DHT22;10715;48.546;9.896;2022-08-19T11:28:53;16.00;99.90
21115;DHT22;10715;48.546;9.896;2022-08-19T11:31:23;16.10;99.90
21115;DHT22;10715;48.546;9.896;2022-08-19T11:33:49;16.00;99.90
21115;DHT22;10715;48.546;9.896;2022-08-19T11:36:18;16.10;99.90
21115;DHT22;10715;48.546;9.896;2022-08-19T11:38:48;16.10;99.90
21115;DHT22;10715;48.546;9.896;2022-08-19T11:41:16;16.10;99.90
21115;DHT22;10715;48.546;9.896;2022-08-19T11:43:42;16.10;99.90
21115;DHT22;10715;48.546;9.896;2022-08-19T11:46:11;16.20;99.90
21115;DHT22;10715;48.546;9.896;2022-08-19T11:48:37;16.10;99.90
21115;DHT22;10715;48.546;9.896;2022-08-19T11:51:06;16.20;99.90
21115;DHT22;10715;48.546;9.896;2022-08-19T11:53:33;16.20;99.90
21115;DHT22;10715;48.546;9.896;2022-08-19T11:55:59;16.20;99.90
21115;DHT22;10715;48.546;9.896;2022-08-19T11:58:25;16.20;99.90
21115;DHT22;10715;48.546;9.896;2022-08-19T12:00:52;16.30;99.90
21115;DHT22;10715;48.546;9.896;2022-08-19T12:03:17;16.30;99.90
21115;DHT22;10715;48.546;9.896;2022-08-19T12:05:45;16.30;99.90
21115;DHT22;10715;48.546;9.896;2022-08-19T12:08:11;16.30;99.90
21115;DHT22;10715;48.546;9.896;2022-08-19T12:10:38;16.30;99.90
21115;DHT22;10715;48.546;9.896;2022-08-19T12:13:05;16.30;99.90
21115;DHT22;10715;48.546;9.896;2022-08-19T12:15:38;16.30;99.90
21115;DHT22;10715;48.546;9.896;2022-08-19T12:18:07;16.30;99.90
21115;DHT22;10715;48.546;9.896;2022-08-19T12:20:37;16.40;99.90
21115;DHT22;10715;48.546;9.896;2022-08-19T12:23:05;16.30;99.90
21115;DHT22;10715;48.546;9.896;2022-08-19T12:25:30;16.40;99.90
21115;DHT22;10715;48.546;9.896;2022-08-19T12:27:57;16.40;99.90
21115;DHT22;10715;48.546;9.896;2022-08-19T12:30:24;16.40;99.90
21115;DHT22;10715;48.546;9.896;2022-08-19T12:32:50;16.40;99.90
21115;DHT22;10715;48.546;9.896;2022-08-19T12:35:17;16.50;99.90
21115;DHT22;10715;48.546;9.896;2022-08-19T12:37:46;16.50;99.90
21115;DHT22;10715;48.546;9.896;2022-08-19T12:40:14;16.40;99.90
21115;DHT22;10715;48.546;9.896;2022-08-19T12:42:40;16.40;99.90
21115;DHT22;10715;48.546;9.896;2022-08-19T12:45:11;16.40;99.90
21115;DHT22;10715;48.546;9.896;2022-08-19T12:47:38;16.40;99.90
21115;DHT22;10715;48.546;9.896;2022-08-19T12:50:04;16.30;99.90
21115;DHT22;10715;48.546;9.896;2022-08-19T12:52:32;16.40;99.90
21115;DHT22;10715;48.546;9.896;2022-08-19T12:54:57;16.40;99.90
21115;DHT22;10715;48.546;9.896;2022-08-19T12:57:26;16.30;99.90
21115;DHT22;10715;48.546;9.896;2022-08-19T12:59:53;16.40;99.90
21115;DHT22;10715;48.546;9.896;2022-08-19T13:02:19;16.30;99.90
21115;DHT22;10715;48.546;9.896;2022-08-19T13:04:46;16.30;99.90
21115;DHT22;10715;48.546;9.896;2022-08-19T13:07:12;16.40;99.90
21115;DHT22;10715;48.546;9.896;2022-08-19T13:09:38;16.40;99.90
21115;DHT22;10715;48.546;9.896;2022-08-19T13:12:06;16.40;99.90
21115;DHT22;10715;48.546;9.896;2022-08-19T13:14:36;16.50;99.90
21115;DHT22;10715;48.546;9.896;2022-08-19T13:17:01;16.50;99.90
21115;DHT22;10715;48.546;9.896;2022-08-19T13:19:27;16.50;99.90
21115;DHT22;10715;48.546;9.896;2022-08-19T13:21:53;16.50;99.90
21115;DHT22;10715;48.546;9.896;2022-08-19T13:24:21;16.40;99.90
21115;DHT22;10715;48.546;9.896;2022-08-19T13:26:46;16.40;99.90
21115;DHT22;10715;48.546;9.896;2022-08-19T13:29:13;16.40;99.90
21115;DHT22;10715;48.546;9.896;2022-08-19T13:31:58;16.30;99.90
21115;DHT22;10715;48.546;9.896;2022-08-19T13:34:42;16.30;99.90
21115;DHT22;10715;48.546;9.896;2022-08-19T13:37:08;16.30;99.90
21115;DHT22;10715;48.546;9.896;2022-08-19T13:39:36;16.30;99.90
21115;DHT22;10715;48.546;9.896;2022-08-19T13:42:05;16.30;99.90
21115;DHT22;10715;48.546;9.896;2022-08-19T13:44:32;16.30;99.90
21115;DHT22;10715;48.546;9.896;2022-08-19T13:47:04;16.30;99.90
21115;DHT22;10715;48.546;9.896;2022-08-19T13:49:32;16.40;99.90
21115;DHT22;10715;48.546;9.896;2022-08-19T13:51:58;16.30;99.90
21115;DHT22;10715;48.546;9.896;2022-08-19T13:54:24;16.30;99.90
21115;DHT22;10715;48.546;9.896;2022-08-19T13:56:50;16.30;99.90
21115;DHT22;10715;48.546;9.896;2022-08-19T13:59:16;16.30;99.90
21115;DHT22;10715;48.546;9.896;2022-08-19T14:01:42;16.30;99.90
21115;DHT22;10715;48.546;9.896;2022-08-19T14:04:08;16.40;99.90
21115;DHT22;10715;48.546;9.896;2022-08-19T14:06:34;16.40;99.90
21115;DHT22;10715;48.546;9.896;2022-08-19T14:09:00;16.40;99.90
21115;DHT22;10715;48.546;9.896;2022-08-19T14:11:28;16.50;99.90
21115;DHT22;10715;48.546;9.896;2022-08-19T14:13:53;16.50;99.90
21115;DHT22;10715;48.546;9.896;2022-08-19T14:16:19;16.50;99.90
21115;DHT22;10715;48.546;9.896;2022-08-19T14:18:46;16.50;99.90
21115;DHT22;10715;48.546;9.896;2022-08-19T14:21:19;16.60;99.90
21115;DHT22;10715;48.546;9.896;2022-08-19T14:23:45;16.60;99.90
21115;DHT22;10715;48.546;9.896;2022-08-19T14:26:13;16.60;99.90
21115;DHT22;10715;48.546;9.896;2022-08-19T14:28:40;16.60;99.90
21115;DHT22;10715;48.546;9.896;2022-08-19T14:31:08;16.60;99.90
21115;DHT22;10715;48.546;9.896;2022-08-19T14:33:34;16.60;99.90
21115;DHT22;10715;48.546;9.896;2022-08-19T14:35:59;16.60;99.90
21115;DHT22;10715;48.546;9.896;2022-08-19T14:38:26;16.50;99.90
21115;DHT22;10715;48.546;9.896;2022-08-19T14:40:52;16.50;99.90
21115;DHT22;10715;48.546;9.896;2022-08-19T14:43:18;16.50;99.90
21115;DHT22;10715;48.546;9.896;2022-08-19T14:45:44;16.50;99.90
21115;DHT22;10715;48.546;9.896;2022-08-19T14:48:10;16.50;99.90
21115;DHT22;10715;48.546;9.896;2022-08-19T14:50:36;16.60;99.90
21115;DHT22;10715;48.546;9.896;2022-08-19T14:53:08;16.60;99.90
21115;DHT22;10715;48.546;9.896;2022-08-19T14:55:34;16.60;99.90
21115;DHT22;10715;48.546;9.896;2022-08-19T14:58:00;16.70;99.90
21115;DHT22;10715;48.546;9.896;2022-08-19T15:00:26;16.60;99.90
21115;DHT22;10715;48.546;9.896;2022-08-19T15:02:53;16.60;99.90
21115;DHT22;10715;48.546;9.896;2022-08-19T15:05:20;16.70;99.90
21115;DHT22;10715;48.546;9.896;2022-08-19T15:07:46;16.70;99.90
21115;DHT22;10715;48.546;9.896;2022-08-19T15:10:14;16.70;99.90
21115;DHT22;10715;48.546;9.896;2022-08-19T15:12:40;16.80;99.90
21115;DHT22;10715;48.546;9.896;2022-08-19T15:15:07;16.80;99.90
21115;DHT22;10715;48.546;9.896;2022-08-19T15:17:34;16.80;99.90
21115;DHT22;10715;48.546;9.896;2022-08-19T15:20:03;16.90;99.90
21115;DHT22;10715;48.546;9.896;2022-08-19T15:22:29;16.90;99.90
21115;DHT22;10715;48.546;9.896;2022-08-19T15:24:55;17.00;99.90
21115;DHT22;10715;48.546;9.896;2022-08-19T15:27:21;17.10;99.90
21115;DHT22;10715;48.546;9.896;2022-08-19T15:29:47;17.10;99.90
21115;DHT22;10715;48.546;9.896;2022-08-19T15:32:13;17.10;99.90
21115;DHT22;10715;48.546;9.896;2022-08-19T15:34:39;17.00;99.90
21115;DHT22;10715;48.546;9.896;2022-08-19T15:37:04;17.00;99.90
21115;DHT22;10715;48.546;9.896;2022-08-19T15:39:31;16.90;99.90
21115;DHT22;10715;48.546;9.896;2022-08-19T15:41:57;16.90;99.90
21115;DHT22;10715;48.546;9.896;2022-08-19T15:44:25;16.90;99.90
21115;DHT22;10715;48.546;9.896;2022-08-19T15:46:51;16.80;99.90